Time;durP1;ratioP1;P1;durP2;ratioP2;P2;SDS_P1;SDS_P2;PMS_P1;PMS_P2;Temp;Humidity;BMP_temperature;BMP_pressure;BME280_temperature;BME280_humidity;BME280_pressure;Samples;Min_cycle;Max_cycle;Signal;HPM_P1;HPM_P2
2023/05/09 00:00:22;;;;;;;69.03;37.47;;;15.10;99.90;;;;;;5016163;28;131424;-75
2023/05/09 00:02:48;;;;;;;70.18;37.35;;;15.10;99.90;;;;;;5073480;28;20059;-74
2023/05/09 00:05:14;;;;;;;76.50;39.58;;;15.00;99.90;;;;;;5008273;28;216573;-75
2023/05/09 00:07:40;;;;;;;70.07;38.67;;;15.10;99.90;;;;;;5078084;28;20056;-75
2023/05/09 00:10:07;;;;;;;71.25;39.83;;;15.00;99.90;;;;;;5007439;28;207477;-75
2023/05/09 00:12:33;;;;;;;73.85;39.00;;;15.10;99.90;;;;;;5080124;28;20502;-75
2023/05/09 00:14:59;;;;;;;76.20;40.97;;;15.10;99.90;;;;;;5014159;28;208370;-75
2023/05/09 00:17:27;;;;;;;75.13;40.60;;;15.00;99.90;;;;;;5077539;28;20052;-75
2023/05/09 00:19:54;;;;;;;79.40;41.75;;;15.00;99.90;;;;;;5022365;28;210560;-74
2023/05/09 00:22:20;;;;;;;76.07;40.72;;;15.00;99.90;;;;;;5075611;28;20045;-74
2023/05/09 00:24:47;;;;;;;67.72;37.95;;;15.00;99.90;;;;;;4999711;28;214272;-75
2023/05/09 00:27:13;;;;;;;84.32;42.65;;;15.00;99.90;;;;;;5074598;28;20055;-75
2023/05/09 00:29:39;;;;;;;68.60;39.78;;;15.00;99.90;;;;;;4988413;28;207855;-76
2023/05/09 00:32:06;;;;;;;73.85;40.13;;;15.00;99.90;;;;;;5071243;28;20810;-75
2023/05/09 00:34:32;;;;;;;59.05;36.08;;;15.00;99.90;;;;;;4996045;28;209110;-75
2023/05/09 00:36:59;;;;;;;79.03;42.88;;;15.00;99.90;;;;;;5072629;28;20050;-74
2023/05/09 00:39:25;;;;;;;76.97;40.83;;;15.00;99.90;;;;;;5017978;28;229397;-74
2023/05/09 00:41:51;;;;;;;79.57;41.47;;;15.00;99.90;;;;;;5076889;28;20104;-74
2023/05/09 00:44:18;;;;;;;74.55;41.65;;;15.00;99.90;;;;;;5031017;28;222243;-73
2023/05/09 00:46:44;;;;;;;61.63;36.90;;;15.00;99.90;;;;;;5081714;28;20052;-74
2023/05/09 00:49:11;;;;;;;55.55;34.55;;;14.90;99.90;;;;;;5009892;28;209970;-74
2023/05/09 00:51:40;;;;;;;78.22;42.30;;;14.90;99.90;;;;;;5072090;28;20053;-74
2023/05/09 00:54:07;;;;;;;71.85;39.40;;;14.90;99.90;;;;;;5028666;28;207025;-75
2023/05/09 00:56:33;;;;;;;79.03;41.30;;;14.90;99.90;;;;;;5089958;28;20035;-74
2023/05/09 00:58:59;;;;;;;71.03;40.72;;;14.90;99.90;;;;;;5015657;28;212953;-73
2023/05/09 01:01:25;;;;;;;71.50;38.95;;;14.90;99.90;;;;;;5078354;28;20052;-74
2023/05/09 01:03:52;;;;;;;72.53;41.42;;;14.80;99.90;;;;;;5031013;28;211857;-74
2023/05/09 01:06:43;;;;;;;72.68;40.03;;;14.90;99.90;;;;;;5070814;28;20059;-74
2023/05/09 01:09:38;;;;;;;67.78;39.60;;;14.80;99.90;;;;;;5020543;28;209895;-73
2023/05/09 01:12:32;;;;;;;66.55;38.25;;;14.80;99.90;;;;;;5059357;28;20041;-76
2023/05/09 01:15:16;;;;;;;75.90;41.35;;;14.80;99.90;;;;;;5005428;28;207924;-76
2023/05/09 01:17:54;;;;;;;66.00;37.63;;;14.80;99.90;;;;;;5076950;28;20054;-75
2023/05/09 01:20:45;;;;;;;76.82;41.28;;;14.80;99.90;;;;;;4996851;28;167046;-73
2023/05/09 01:23:30;;;;;;;;;;;14.80;99.90;;;;;;5021845;28;209869;-73
2023/05/09 01:26:17;;;;;;;73.32;40.22;;;14.80;99.90;;;;;;5069600;28;20598;-75
2023/05/09 01:29:25;;;;;;;70.72;39.03;;;14.70;99.90;;;;;;5032599;28;212824;-77
2023/05/09 01:31:53;;;;;;;81.70;43.70;;;14.70;99.90;;;;;;5067941;28;20463;-74
2023/05/09 01:34:24;;;;;;;84.05;43.53;;;14.60;99.90;;;;;;5011592;28;209921;-74
2023/05/09 01:36:53;;;;;;;71.97;39.72;;;14.60;99.90;;;;;;5078381;28;20043;-74
2023/05/09 01:39:21;;;;;;;87.55;44.55;;;14.60;99.90;;;;;;5013514;28;220006;-74
2023/05/09 01:41:48;;;;;;;74.43;40.25;;;14.60;99.90;;;;;;5072289;28;20426;-75
2023/05/09 01:44:15;;;;;;;66.63;38.22;;;14.60;99.90;;;;;;5017749;28;205400;-75
2023/05/09 01:46:43;;;;;;;78.82;42.90;;;14.60;99.90;;;;;;5065312;28;20056;-75
2023/05/09 01:49:10;;;;;;;85.22;45.05;;;14.60;99.90;;;;;;5031542;27;136950;-75
2023/05/09 01:51:37;;;;;;;84.03;42.45;;;14.60;99.90;;;;;;5069972;28;20059;-75
2023/05/09 01:54:05;;;;;;;74.20;41.70;;;14.70;99.90;;;;;;5023293;28;210111;-75
2023/05/09 01:56:32;;;;;;;63.78;37.47;;;14.70;99.90;;;;;;5071799;28;20415;-76
2023/05/09 01:59:00;;;;;;;71.25;40.60;;;14.70;99.90;;;;;;4993995;28;214664;-75
2023/05/09 02:01:28;;;;;;;64.85;38.25;;;14.80;99.90;;;;;;5064995;28;20655;-74
2023/05/09 02:03:55;;;;;;;79.22;42.53;;;14.80;99.90;;;;;;5020756;28;203702;-74
2023/05/09 02:06:23;;;;;;;76.82;43.33;;;14.80;99.90;;;;;;5077397;28;20056;-76
2023/05/09 02:08:50;;;;;;;69.85;39.20;;;14.80;99.90;;;;;;5020139;28;208352;-73
2023/05/09 02:11:16;;;;;;;85.65;44.08;;;14.80;99.90;;;;;;5080079;27;20056;-75
2023/05/09 02:13:42;;;;;;;74.53;40.35;;;14.80;99.90;;;;;;5019970;28;216818;-75
2023/05/09 02:16:09;;;;;;;70.20;39.58;;;14.80;99.90;;;;;;5074965;28;20044;-74
2023/05/09 02:18:36;;;;;;;69.43;41.15;;;14.80;99.90;;;;;;5036108;28;221691;-74
2023/05/09 02:21:02;;;;;;;79.03;42.97;;;14.80;99.90;;;;;;5083821;28;20059;-74
2023/05/09 02:23:29;;;;;;;67.15;38.30;;;14.70;99.90;;;;;;5015590;28;205309;-74
2023/05/09 02:25:55;;;;;;;71.75;41.28;;;14.80;99.90;;;;;;5034172;28;20048;-74
2023/05/09 02:28:23;;;;;;;60.50;35.55;;;14.70;99.90;;;;;;4998170;28;216489;-74
2023/05/09 02:30:52;;;;;;;63.28;36.25;;;14.70;99.90;;;;;;5067208;28;20052;-74
2023/05/09 02:33:18;;;;;;;66.70;36.97;;;14.70;99.90;;;;;;5010658;28;210488;-74
2023/05/09 02:35:45;;;;;;;62.30;37.42;;;14.70;99.90;;;;;;5078444;28;20040;-75
2023/05/09 02:38:12;;;;;;;59.33;35.97;;;14.70;99.90;;;;;;5016614;28;205326;-74
2023/05/09 02:40:38;;;;;;;57.25;33.70;;;14.70;99.90;;;;;;5063772;28;20088;-74
2023/05/09 02:43:04;;;;;;;63.08;34.88;;;14.70;99.90;;;;;;5021252;28;207710;-74
2023/05/09 02:45:31;;;;;;;58.70;35.28;;;14.70;99.90;;;;;;5045604;28;20059;-75
2023/05/09 02:47:57;;;;;;;64.53;37.28;;;14.70;99.90;;;;;;5059097;28;205171;-74
2023/05/09 02:50:23;;;;;;;61.05;35.83;;;14.70;99.90;;;;;;5022108;28;196996;-74
2023/05/09 02:52:49;;;;;;;68.65;39.00;;;14.70;99.90;;;;;;5072487;28;20602;-74
2023/05/09 02:55:15;;;;;;;76.45;41.53;;;14.70;99.90;;;;;;5007399;28;203828;-73
2023/05/09 02:57:41;;;;;;;76.43;42.75;;;14.70;99.90;;;;;;5080834;28;20044;-74
2023/05/09 03:00:11;;;;;;;79.18;42.38;;;14.80;99.90;;;;;;4983906;28;218354;-73
2023/05/09 03:02:37;;;;;;;70.00;39.00;;;14.70;99.90;;;;;;5073754;28;20052;-73
2023/05/09 03:05:03;;;;;;;58.58;36.05;;;14.70;99.90;;;;;;5005184;28;208986;-73
2023/05/09 03:07:30;;;;;;;57.90;35.25;;;14.80;99.90;;;;;;5078257;28;20063;-74
2023/05/09 03:09:56;;;;;;;61.95;36.17;;;14.80;99.90;;;;;;5004959;28;211953;-74
2023/05/09 03:12:22;;;;;;;50.83;31.48;;;14.80;99.90;;;;;;5075898;28;20063;-74
2023/05/09 03:14:48;;;;;;;76.72;40.47;;;14.80;99.90;;;;;;5005939;28;217310;-73
2023/05/09 03:17:19;;;;;;;64.43;35.97;;;14.80;99.90;;;;;;5070441;28;20534;-73
2023/05/09 03:19:47;;;;;;;61.63;35.85;;;14.80;99.90;;;;;;5013648;28;210266;-74
2023/05/09 03:22:13;;;;;;;69.90;38.80;;;14.80;99.90;;;;;;5076972;28;20406;-73
2023/05/09 03:24:40;;;;;;;62.67;37.65;;;14.80;99.90;;;;;;5029494;28;220776;-73
2023/05/09 03:27:06;;;;;;;60.13;36.95;;;14.80;99.90;;;;;;5082170;28;20052;-73
2023/05/09 03:29:32;;;;;;;72.15;40.88;;;14.80;99.90;;;;;;5008726;28;217122;-73
2023/05/09 03:31:58;;;;;;;63.13;37.10;;;14.80;99.90;;;;;;5074105;28;20060;-73
2023/05/09 03:34:24;;;;;;;62.88;38.25;;;14.80;99.90;;;;;;5009326;28;207264;-73
2023/05/09 03:36:50;;;;;;;68.90;39.15;;;14.80;99.90;;;;;;5070148;28;20664;-73
2023/05/09 03:39:16;;;;;;;70.97;40.97;;;14.80;99.90;;;;;;5003680;28;213122;-73
2023/05/09 03:41:43;;;;;;;70.97;39.50;;;14.90;99.90;;;;;;5077484;28;20059;-72
2023/05/09 03:44:09;;;;;;;69.93;38.50;;;14.80;99.90;;;;;;5012917;28;209179;-73
2023/05/09 03:46:35;;;;;;;59.13;37.33;;;14.90;99.90;;;;;;5068894;28;20044;-72
2023/05/09 03:49:01;;;;;;;58.53;35.92;;;14.90;99.90;;;;;;5012448;28;211851;-73
2023/05/09 03:51:27;;;;;;;71.03;40.42;;;14.90;99.90;;;;;;5073720;28;20404;-73
2023/05/09 03:53:53;;;;;;;55.65;36.33;;;14.90;99.90;;;;;;5015813;28;225049;-73
2023/05/09 03:56:19;;;;;;;66.95;39.78;;;14.90;99.90;;;;;;5063769;28;20513;-73
2023/05/09 03:58:45;;;;;;;73.95;42.20;;;14.90;99.90;;;;;;5004106;28;207218;-73
2023/05/09 04:01:11;;;;;;;64.47;40.60;;;14.90;99.90;;;;;;5058098;28;20036;-73
2023/05/09 04:03:37;;;;;;;82.07;46.17;;;15.00;99.90;;;;;;5013345;28;208266;-74
2023/05/09 04:06:04;;;;;;;80.63;43.95;;;15.00;99.90;;;;;;5066228;28;20052;-73
2023/05/09 04:08:31;;;;;;;80.43;45.92;;;15.00;99.90;;;;;;5003690;28;205025;-74
2023/05/09 04:10:57;;;;;;;67.05;40.38;;;15.00;99.90;;;;;;5063866;28;20060;-76
2023/05/09 04:13:23;;;;;;;86.05;46.15;;;15.00;99.90;;;;;;5009892;28;208794;-74
2023/05/09 04:15:50;;;;;;;81.22;46.25;;;15.00;99.90;;;;;;5074177;28;20066;-73
2023/05/09 04:18:16;;;;;;;76.78;45.75;;;15.00;99.90;;;;;;5015327;28;206499;-74
2023/05/09 04:20:42;;;;;;;79.25;44.65;;;15.10;99.90;;;;;;5063090;28;20059;-74
2023/05/09 04:23:08;;;;;;;102.22;49.85;;;15.10;99.90;;;;;;5025429;28;207238;-73
2023/05/09 04:25:36;;;;;;;96.43;49.67;;;15.10;99.90;;;;;;5068367;28;20619;-74
2023/05/09 04:28:02;;;;;;;100.80;51.38;;;15.10;99.90;;;;;;5023038;28;218185;-73
2023/05/09 04:30:28;;;;;;;100.97;50.88;;;15.10;99.90;;;;;;5053427;28;20048;-73
2023/05/09 04:32:54;;;;;;;94.10;50.42;;;15.10;99.90;;;;;;5064276;28;213043;-73
2023/05/09 04:35:21;;;;;;;81.68;46.92;;;15.10;99.90;;;;;;5026387;28;168579;-74
2023/05/09 04:37:47;;;;;;;95.68;51.53;;;15.20;99.90;;;;;;5075882;28;20048;-74
2023/05/09 04:40:13;;;;;;;95.43;50.90;;;15.20;99.90;;;;;;4996085;28;210923;-74
2023/05/09 04:42:40;;;;;;;120.75;54.40;;;15.20;99.90;;;;;;5077600;28;20055;-73
2023/05/09 04:45:06;;;;;;;110.38;53.22;;;15.20;99.90;;;;;;4988890;28;209108;-73
2023/05/09 04:47:32;;;;;;;107.90;53.17;;;15.30;99.90;;;;;;5072469;28;20063;-73
2023/05/09 04:49:58;;;;;;;105.65;53.05;;;15.30;99.90;;;;;;5028394;28;213303;-72
2023/05/09 04:52:24;;;;;;;131.75;57.28;;;15.40;99.90;;;;;;5079657;28;20059;-73
2023/05/09 04:54:50;;;;;;;116.30;53.63;;;15.40;99.90;;;;;;5012499;28;213606;-73
2023/05/09 04:57:17;;;;;;;117.15;54.30;;;15.40;99.90;;;;;;5083088;28;20311;-73
2023/05/09 04:59:43;;;;;;;102.82;51.05;;;15.40;99.90;;;;;;4982854;28;209491;-72
2023/05/09 05:02:09;;;;;;;101.25;52.80;;;15.40;99.90;;;;;;5074995;28;20455;-73
2023/05/09 05:04:35;;;;;;;107.43;52.95;;;15.40;99.90;;;;;;5017807;28;207553;-72
2023/05/09 05:07:01;;;;;;;101.38;52.55;;;15.40;99.90;;;;;;5079458;28;20040;-73
2023/05/09 05:09:27;;;;;;;106.30;52.90;;;15.40;99.90;;;;;;5008480;28;206639;-74
2023/05/09 05:11:53;;;;;;;102.88;54.58;;;15.40;99.90;;;;;;5063905;28;20427;-72
2023/05/09 05:14:19;;;;;;;99.28;53.10;;;15.40;99.90;;;;;;5019263;28;206283;-74
2023/05/09 05:16:46;;;;;;;102.45;54.30;;;15.40;99.90;;;;;;5077618;28;20055;-74
2023/05/09 05:19:12;;;;;;;107.70;55.50;;;15.50;99.90;;;;;;5023165;28;204890;-73
2023/05/09 05:21:38;;;;;;;107.13;54.97;;;15.50;99.90;;;;;;5072302;28;20636;-73
2023/05/09 05:24:04;;;;;;;102.75;54.00;;;15.50;99.90;;;;;;5011529;28;215248;-73
2023/05/09 05:26:30;;;;;;;93.78;51.55;;;15.50;99.90;;;;;;5074823;28;20052;-72
2023/05/09 05:28:56;;;;;;;88.15;50.40;;;15.50;99.90;;;;;;5006168;28;207703;-73
2023/05/09 05:31:23;;;;;;;99.00;54.53;;;15.60;99.90;;;;;;5070133;28;20059;-73
2023/05/09 05:33:49;;;;;;;91.43;53.60;;;15.60;99.90;;;;;;5024292;28;212677;-72
2023/05/09 05:36:15;;;;;;;97.78;53.47;;;15.60;99.90;;;;;;5054840;28;20052;-71
2023/05/09 05:38:41;;;;;;;97.47;55.92;;;15.70;99.90;;;;;;5026899;28;212552;-73
2023/05/09 05:41:10;;;;;;;99.07;54.00;;;15.70;99.90;;;;;;5077056;28;20052;-73
2023/05/09 05:43:36;;;;;;;98.63;54.95;;;15.70;99.90;;;;;;5016497;28;207905;-72
2023/05/09 05:46:02;;;;;;;92.15;53.38;;;15.80;99.90;;;;;;5057120;28;20056;-71
2023/05/09 05:48:28;;;;;;;102.20;56.40;;;15.80;99.90;;;;;;5018229;28;228741;-73
2023/05/09 05:50:54;;;;;;;100.53;56.72;;;15.80;99.90;;;;;;5093870;28;20060;-72
2023/05/09 05:53:21;;;;;;;106.70;58.28;;;15.90;99.90;;;;;;5018777;28;213621;-72
2023/05/09 05:55:48;;;;;;;99.60;55.10;;;16.00;99.90;;;;;;5053668;28;20055;-72
2023/05/09 05:58:14;;;;;;;96.45;55.70;;;16.10;99.90;;;;;;5003946;28;211773;-72
2023/05/09 06:00:40;;;;;;;85.65;53.45;;;16.20;99.90;;;;;;5080907;28;20086;-75
2023/05/09 06:03:06;;;;;;;89.00;52.58;;;16.30;99.90;;;;;;5012440;28;206082;-73
2023/05/09 06:05:32;;;;;;;74.07;48.78;;;16.40;99.90;;;;;;5064247;28;20048;-73
2023/05/09 06:07:58;;;;;;;81.57;50.13;;;16.50;99.90;;;;;;5036536;28;207411;-71
2023/05/09 06:10:24;;;;;;;76.40;51.28;;;16.60;99.90;;;;;;5034476;28;20071;-73
2023/05/09 06:12:51;;;;;;;70.93;47.50;;;16.70;99.90;;;;;;5075714;28;20059;-73
2023/05/09 06:15:17;;;;;;;74.22;47.70;;;16.80;99.90;;;;;;4989679;28;208677;-74
2023/05/09 06:17:43;;;;;;;66.90;46.53;;;16.80;99.90;;;;;;5081277;28;20507;-73
2023/05/09 06:20:09;;;;;;;72.10;48.70;;;16.90;99.90;;;;;;5004766;28;212745;-73
2023/05/09 06:22:36;;;;;;;70.78;45.53;;;16.90;99.90;;;;;;5082398;28;20059;-73
2023/05/09 06:25:02;;;;;;;67.75;45.03;;;16.90;99.90;;;;;;5029266;28;140864;-73
2023/05/09 06:27:28;;;;;;;61.42;41.47;;;16.90;99.90;;;;;;5077437;28;20174;-73
2023/05/09 06:29:54;;;;;;;62.03;41.63;;;16.90;99.90;;;;;;4992112;28;207477;-74
2023/05/09 06:32:20;;;;;;;64.32;42.05;;;17.00;99.90;;;;;;5081190;28;20526;-73
2023/05/09 06:34:47;;;;;;;58.38;38.35;;;17.00;99.90;;;;;;5024666;28;207292;-72
2023/05/09 06:37:13;;;;;;;49.25;35.20;;;17.00;99.90;;;;;;5085528;28;20063;-73
2023/05/09 06:39:39;;;;;;;52.92;34.78;;;17.00;99.90;;;;;;5021264;28;210664;-73
2023/05/09 06:42:05;;;;;;;47.42;33.28;;;16.90;99.90;;;;;;5080946;28;20060;-72
2023/05/09 06:44:31;;;;;;;43.25;30.92;;;16.90;99.90;;;;;;5017272;28;206748;-72
2023/05/09 06:46:57;;;;;;;43.97;31.13;;;16.90;99.90;;;;;;5078590;28;20060;-72
2023/05/09 06:49:23;;;;;;;47.50;31.58;;;16.90;99.90;;;;;;5019022;28;210223;-72
2023/05/09 06:51:49;;;;;;;42.33;31.20;;;16.90;99.90;;;;;;5069083;28;20044;-72
2023/05/09 06:54:16;;;;;;;46.92;30.08;;;16.80;99.90;;;;;;5020491;28;212983;-72
2023/05/09 06:56:42;;;;;;;41.58;29.83;;;16.80;99.90;;;;;;5061045;28;20051;-72
2023/05/09 06:59:12;;;;;;;38.08;28.40;;;16.80;99.90;;;;;;5001854;28;208666;-72
2023/05/09 07:01:39;;;;;;;36.45;29.05;;;16.80;99.90;;;;;;5076400;28;20060;-72
2023/05/09 07:04:05;;;;;;;41.58;30.05;;;16.80;99.90;;;;;;5013232;28;212726;-72
2023/05/09 07:06:31;;;;;;;41.55;29.73;;;16.90;99.90;;;;;;5080022;28;20052;-73
2023/05/09 07:08:57;;;;;;;41.25;29.05;;;16.90;99.90;;;;;;5003538;28;207068;-73
2023/05/09 07:11:24;;;;;;;44.85;30.10;;;16.90;99.90;;;;;;5072616;28;20643;-73
2023/05/09 07:13:50;;;;;;;43.72;30.13;;;16.90;99.90;;;;;;5020803;28;197426;-72
2023/05/09 07:16:21;;;;;;;45.03;31.15;;;16.80;99.90;;;;;;5066485;28;20070;-72
2023/05/09 07:18:47;;;;;;;42.28;28.98;;;16.90;99.90;;;;;;5032174;28;206302;-73
2023/05/09 07:21:13;;;;;;;45.20;28.30;;;16.90;99.90;;;;;;5080714;28;20062;-73
2023/05/09 07:23:39;;;;;;;47.20;31.30;;;16.80;99.90;;;;;;5022667;28;216600;-71
2023/05/09 07:26:05;;;;;;;49.63;32.45;;;16.80;99.90;;;;;;5082021;28;20430;-70
2023/05/09 07:28:32;;;;;;;52.30;31.30;;;16.80;99.90;;;;;;5020065;28;206607;-72
2023/05/09 07:30:58;;;;;;;51.70;31.75;;;16.80;99.90;;;;;;5081681;28;20059;-72
2023/05/09 07:33:24;;;;;;;47.75;32.17;;;16.90;99.90;;;;;;5014311;28;209646;-70
2023/05/09 07:35:51;;;;;;;45.97;31.23;;;16.90;99.90;;;;;;5070920;28;20051;-70
2023/05/09 07:38:17;;;;;;;49.05;31.67;;;17.00;99.90;;;;;;5020602;28;209593;-71
2023/05/09 07:40:43;;;;;;;53.22;33.55;;;17.20;99.90;;;;;;5069338;28;20032;-72
2023/05/09 07:43:10;;;;;;;47.05;31.60;;;17.30;99.90;;;;;;5016758;28;207035;-71
2023/05/09 07:45:36;;;;;;;55.08;32.83;;;17.40;99.90;;;;;;5042879;28;20049;-72
2023/05/09 07:48:02;;;;;;;49.50;32.13;;;17.30;99.90;;;;;;5009632;28;209922;-72
2023/05/09 07:50:28;;;;;;;48.97;32.95;;;17.30;99.90;;;;;;5035672;28;20052;-71
2023/05/09 07:52:54;;;;;;;49.28;31.80;;;17.40;99.90;;;;;;5046356;28;209960;-73
2023/05/09 07:55:20;;;;;;;49.22;32.70;;;17.40;99.90;;;;;;5011587;28;189706;-71
2023/05/09 07:57:46;;;;;;;47.03;32.80;;;17.40;99.90;;;;;;5059023;28;20048;-70
2023/05/09 08:00:13;;;;;;;52.10;34.85;;;17.50;99.90;;;;;;4991678;28;226394;-72
2023/05/09 08:02:40;;;;;;;50.13;32.88;;;17.60;99.90;;;;;;5062849;28;20057;-72
2023/05/09 08:05:07;;;;;;;55.28;33.83;;;17.50;99.90;;;;;;5023961;28;209410;-72
2023/05/09 08:07:33;;;;;;;49.47;33.78;;;17.60;99.90;;;;;;5084324;28;20159;-71
2023/05/09 08:09:59;;;;;;;55.13;33.63;;;17.60;99.90;;;;;;5006743;28;214054;-71
2023/05/09 08:12:25;;;;;;;50.28;33.42;;;17.50;99.90;;;;;;5079911;28;20053;-71
2023/05/09 08:14:51;;;;;;;50.08;34.10;;;17.50;99.90;;;;;;5009366;28;218184;-72
2023/05/09 08:17:18;;;;;;;53.08;34.22;;;17.40;99.90;;;;;;5074882;28;20052;-71
2023/05/09 08:19:44;;;;;;;50.03;32.92;;;17.40;99.90;;;;;;5014348;28;209442;-73
2023/05/09 08:22:17;;;;;;;49.08;33.85;;;17.50;99.90;;;;;;5073880;28;20052;-71
2023/05/09 08:24:44;;;;;;;52.08;33.85;;;17.50;99.90;;;;;;4999409;28;279131;-71
2023/05/09 08:27:12;;;;;;;48.25;32.38;;;17.60;99.90;;;;;;5071900;28;20063;-70
2023/05/09 08:29:42;;;;;;;51.25;33.88;;;17.70;99.90;;;;;;5011880;28;213808;-70
2023/05/09 08:32:08;;;;;;;51.65;32.72;;;17.80;99.90;;;;;;5072931;28;20434;-72
2023/05/09 08:34:35;;;;;;;55.58;34.53;;;17.90;99.90;;;;;;5026569;28;209215;-72
2023/05/09 08:37:02;;;;;;;49.58;34.05;;;17.90;99.90;;;;;;5079307;28;20052;-70
2023/05/09 08:39:29;;;;;;;49.75;34.55;;;18.10;99.90;;;;;;5023469;27;207873;-70
2023/05/09 08:41:59;;;;;;;49.50;33.05;;;18.20;99.90;;;;;;5074136;28;20064;-71
2023/05/09 08:44:27;;;;;;;51.72;34.85;;;18.30;99.90;;;;;;5013610;28;211601;-69
2023/05/09 08:47:01;;;;;;;49.20;33.65;;;18.30;99.90;;;;;;5060288;28;20409;-71
2023/05/09 08:49:28;;;;;;;49.47;34.50;;;18.40;99.90;;;;;;4986779;28;213829;-72
2023/05/09 08:51:55;;;;;;;48.83;33.30;;;18.30;99.90;;;;;;5043282;28;20083;-72
2023/05/09 08:54:22;;;;;;;52.15;32.30;;;18.40;99.90;;;;;;4984214;28;214987;-71
2023/05/09 08:56:49;;;;;;;51.90;33.83;;;18.30;99.90;;;;;;5045737;28;20052;-71
2023/05/09 08:59:16;;;;;;;47.42;32.88;;;18.30;99.90;;;;;;4984069;28;211426;-71
2023/05/09 09:01:43;;;;;;;47.38;31.75;;;18.50;99.90;;;;;;5047380;28;20056;-70
2023/05/09 09:04:12;;;;;;;47.47;31.13;;;18.60;99.90;;;;;;5000686;28;210536;-70
2023/05/09 09:06:39;;;;;;;47.03;31.05;;;18.60;99.90;;;;;;5053056;28;20068;-71
2023/05/09 09:09:07;;;;;;;47.08;31.50;;;18.70;99.90;;;;;;4983616;28;208952;-70
2023/05/09 09:11:35;;;;;;;43.22;29.10;;;19.00;99.90;;;;;;5048894;28;20063;-70
2023/05/09 09:14:15;;;;;;;40.92;28.00;;;19.00;99.90;;;;;;4985575;28;223386;-71
2023/05/09 09:16:43;;;;;;;41.23;27.77;;;18.90;99.90;;;;;;5049654;28;20048;-68
2023/05/09 09:19:12;;;;;;;41.58;27.60;;;18.90;99.90;;;;;;4997376;28;210613;-69
2023/05/09 09:21:43;;;;;;;42.75;26.60;;;18.90;99.90;;;;;;5055258;28;20052;-72
2023/05/09 09:24:13;;;;;;;40.38;26.85;;;18.70;99.90;;;;;;5005385;28;180807;-71
2023/05/09 09:26:47;;;;;;;40.95;28.17;;;18.70;99.90;;;;;;5061069;28;20103;-71
2023/05/09 09:29:14;;;;;;;43.45;27.67;;;18.50;99.90;;;;;;4991354;28;218408;-70
2023/05/09 09:31:44;;;;;;;41.35;28.42;;;18.50;99.90;;;;;;5048172;28;20053;-70
2023/05/09 09:34:13;;;;;;;39.35;27.95;;;18.50;99.90;;;;;;5004322;28;212012;-70
2023/05/09 09:36:39;;;;;;;42.08;28.05;;;18.40;99.90;;;;;;5054844;28;20056;-71
2023/05/09 09:39:05;;;;;;;43.17;26.70;;;18.40;99.90;;;;;;4994037;28;221317;-69
2023/05/09 09:41:35;;;;;;;40.20;26.65;;;18.50;99.90;;;;;;5050145;28;20064;-70
2023/05/09 09:44:10;;;;;;;40.38;25.65;;;18.40;99.90;;;;;;4994586;28;212170;-71
2023/05/09 09:46:47;;;;;;;45.30;27.35;;;18.30;99.90;;;;;;5050894;28;20504;-71
2023/05/09 09:49:15;;;;;;;39.85;27.65;;;18.30;99.90;;;;;;4994171;28;211080;-72
2023/05/09 09:51:43;;;;;;;40.85;27.45;;;18.30;99.90;;;;;;5028399;28;20068;-71
2023/05/09 09:54:11;;;;;;;37.72;26.00;;;18.40;99.90;;;;;;4997658;28;213683;-71
2023/05/09 09:56:48;;;;;;;37.08;25.25;;;18.80;99.90;;;;;;5052796;28;20037;-70
2023/05/09 09:59:23;;;;;;;34.40;23.83;;;19.20;99.90;;;;;;4976453;28;228873;-69
2023/05/09 10:01:56;;;;;;;32.92;23.60;;;19.30;99.90;;;;;;5055959;28;20533;-71
2023/05/09 10:04:23;;;;;;;34.15;22.55;;;19.30;99.90;;;;;;5008339;28;212559;-71
2023/05/09 10:07:04;;;;;;;33.10;23.50;;;19.40;99.90;;;;;;5077947;28;20602;-71
2023/05/09 10:09:32;;;;;;;31.90;21.60;;;19.60;99.90;;;;;;5002434;28;210502;-70
2023/05/09 10:12:05;;;;;;;30.85;20.35;;;19.70;99.90;;;;;;5073137;28;20084;-70
2023/05/09 10:14:33;;;;;;;29.02;19.50;;;19.80;99.90;;;;;;5001882;28;210669;-71
2023/05/09 10:17:01;;;;;;;26.00;19.13;;;19.80;99.90;;;;;;5075105;28;20512;-69
2023/05/09 10:19:28;;;;;;;30.58;19.63;;;19.90;99.90;;;;;;5032711;28;210272;-70
2023/05/09 10:22:03;;;;;;;26.27;18.55;;;20.10;99.90;;;;;;5080126;28;20071;-69
2023/05/09 10:24:55;;;;;;;29.60;19.60;;;20.10;99.90;;;;;;5014815;28;213260;-69
2023/05/09 10:27:25;;;;;;;26.10;17.60;;;20.10;99.90;;;;;;5077229;28;20060;-70
2023/05/09 10:30:01;;;;;;;26.87;17.77;;;20.20;99.90;;;;;;5003981;28;208762;-71
2023/05/09 10:32:37;;;;;;;24.15;16.02;;;19.90;99.90;;;;;;5084590;28;20059;-70
2023/05/09 10:35:05;;;;;;;24.05;16.73;;;19.70;99.90;;;;;;5002672;28;212011;-69
2023/05/09 10:37:32;;;;;;;26.73;18.10;;;19.60;99.90;;;;;;5076150;28;20040;-69
2023/05/09 10:40:01;;;;;;;25.35;18.55;;;19.60;99.90;;;;;;5006690;28;213077;-68
2023/05/09 10:42:28;;;;;;;27.13;18.52;;;19.60;99.90;;;;;;5079555;28;20542;-70
2023/05/09 10:44:55;;;;;;;25.08;17.77;;;19.70;99.90;;;;;;5016938;28;209186;-70
2023/05/09 10:47:22;;;;;;;26.60;17.88;;;19.90;99.90;;;;;;5079160;28;20044;-70
2023/05/09 10:49:48;;;;;;;26.48;16.63;;;20.00;99.90;;;;;;5000320;28;212553;-70
2023/05/09 10:52:15;;;;;;;23.98;16.70;;;20.10;99.90;;;;;;5074101;28;20051;-69
2023/05/09 10:54:41;;;;;;;22.77;16.30;;;20.00;99.90;;;;;;5019249;28;212975;-68
2023/05/09 10:57:11;;;;;;;24.50;16.77;;;20.20;99.90;;;;;;5088365;28;20051;-68
2023/05/09 10:59:38;;;;;;;22.08;14.88;;;20.20;99.90;;;;;;5012227;28;210553;-68
2023/05/09 11:02:11;;;;;;;22.42;14.77;;;20.10;99.90;;;;;;5078147;28;20521;-67
2023/05/09 11:04:38;;;;;;;20.42;15.02;;;20.10;99.90;;;;;;5009239;28;210882;-69
2023/05/09 11:07:22;;;;;;;25.85;14.35;;;20.10;99.90;;;;;;5075475;28;20409;-68
2023/05/09 11:10:16;;;;;;;20.90;13.93;;;20.00;99.90;;;;;;4995992;27;207808;-68
2023/05/09 11:12:54;;;;;;;22.08;15.30;;;19.90;99.90;;;;;;5072451;28;20044;-70
2023/05/09 11:15:21;;;;;;;23.23;16.02;;;19.70;99.90;;;;;;4988600;28;159939;-68
2023/05/09 11:17:51;;;;;;;23.08;16.05;;;19.80;99.90;;;;;;5080790;28;20522;-68
2023/05/09 11:20:17;;;;;;;24.05;17.55;;;19.90;99.90;;;;;;5007995;28;208626;-70
2023/05/09 11:22:45;;;;;;;26.80;17.38;;;19.90;99.90;;;;;;5056150;28;20060;-69
2023/05/09 11:25:16;;;;;;;21.77;14.98;;;20.00;99.90;;;;;;5011866;28;187779;-69
2023/05/09 11:27:48;;;;;;;23.15;14.82;;;20.10;99.90;;;;;;5071078;28;20052;-70
2023/05/09 11:30:16;;;;;;;21.88;14.55;;;20.20;99.90;;;;;;5022217;28;206544;-68
2023/05/09 11:32:54;;;;;;;21.23;14.00;;;20.20;99.90;;;;;;5076686;28;20071;-67
2023/05/09 11:35:22;;;;;;;17.83;12.32;;;20.30;99.90;;;;;;5013807;28;206321;-69
2023/05/09 11:37:49;;;;;;;19.00;13.35;;;20.40;99.90;;;;;;5082661;28;20052;-70
2023/05/09 11:40:20;;;;;;;19.40;12.05;;;20.40;99.90;;;;;;4974242;28;216032;-68
2023/05/09 11:42:52;;;;;;;17.25;11.85;;;20.50;99.90;;;;;;5058141;28;20048;-66
2023/05/09 11:45:19;;;;;;;16.42;11.32;;;20.50;99.90;;;;;;4990661;28;210742;-69
2023/05/09 11:47:46;;;;;;;16.08;10.45;;;20.60;99.90;;;;;;5049512;28;20101;-68
2023/05/09 11:50:14;;;;;;;16.15;10.30;;;20.60;99.90;;;;;;5000997;28;209699;-68
2023/05/09 11:52:41;;;;;;;14.38;9.60;;;20.60;99.90;;;;;;5053795;28;20083;-67
2023/05/09 11:55:09;;;;;;;14.93;9.93;;;20.60;99.90;;;;;;4980467;28;214183;-70
2023/05/09 11:57:39;;;;;;;14.73;9.32;;;20.60;99.90;;;;;;5058716;28;20053;-67
2023/05/09 12:00:08;;;;;;;14.63;9.73;;;20.60;99.90;;;;;;4997214;28;213111;-69
2023/05/09 12:02:34;;;;;;;15.45;9.63;;;20.60;99.90;;;;;;5057503;28;20532;-69
2023/05/09 12:05:11;;;;;;;15.02;9.57;;;20.40;99.90;;;;;;4978514;28;215560;-68
2023/05/09 12:07:41;;;;;;;16.00;9.73;;;20.60;99.90;;;;;;5051709;28;20060;-69
2023/05/09 12:10:08;;;;;;;16.30;9.85;;;20.70;99.90;;;;;;4995628;28;213095;-68
2023/05/09 12:12:43;;;;;;;15.35;9.48;;;20.90;99.90;;;;;;5051696;28;20049;-69
2023/05/09 12:15:10;;;;;;;14.88;9.65;;;21.00;99.90;;;;;;4986367;28;209031;-67
2023/05/09 12:17:36;;;;;;;18.27;10.18;;;21.10;99.90;;;;;;5050776;28;20056;-69
2023/05/09 12:20:05;;;;;;;15.15;9.68;;;21.00;99.90;;;;;;5003298;28;213701;-66
2023/05/09 12:22:32;;;;;;;15.73;9.48;;;20.80;99.90;;;;;;5054617;28;20064;-68
2023/05/09 12:25:06;;;;;;;14.45;9.27;;;20.70;99.90;;;;;;5003131;28;216142;-70
2023/05/09 12:27:34;;;;;;;18.02;10.43;;;20.70;99.90;;;;;;5054496;28;20055;-68